NCAR-RAP Real-Time Weather Data

Output produced by METARs form (12 May 2021  10:56 UTC)
found at http://weather.rap.ucar.edu/surface/
 
KAKO 120953Z AUTO 18006KT 6SM BR CLR 02/01 A3029 RMK AO2 SLP267 T00170006
KAKO 120853Z AUTO 16009KT 8SM CLR 02/01 A3029 RMK AO2 SLP267 T00220011 58011
KAKO 120753Z AUTO 15006KT 5SM BR CLR 02/01 A3030 RMK AO2 SLP272 T00220011
KAKO 120653Z AUTO 15006KT 9SM FEW055 03/02 A3032 RMK AO2 SLP277 T00280017 400670000
KAKO 120553Z AUTO 14005KT 10SM FEW007 FEW025 BKN033 03/02 A3033 RMK AO2 SLP280 T00280017 10050 20028 58001
KAKO 120453Z AUTO 18008KT 10SM FEW007 SCT013 BKN055 04/02 A3033 RMK AO2 SLP281 T00390022
KAKO 120448Z AUTO 17008KT 10SM SCT007 BKN012 OVC055 04/02 A3033 RMK AO2
KAKO 120431Z AUTO 18011KT 10SM BKN007 OVC050 04/03 A3033 RMK AO2 T00440028
KAKO 120416Z AUTO 17008KT 10SM FEW007 SCT033 OVC050 04/03 A3034 RMK AO2 T00440028
KAKO 120353Z AUTO 16008KT 10SM BKN031 OVC050 04/03 A3033 RMK AO2 SLP283 T00440028
KAKO 120253Z AUTO 15006KT 10SM FEW009 BKN030 OVC037 05/03 A3032 RMK AO2 SLP281 T00500028 53012
KAKO 120153Z AUTO 14006KT 10SM FEW008 BKN024 OVC050 04/03 A3030 RMK AO2 SLP275 T00440028
KAKO 120107Z AUTO 13010KT 10SM SCT007 BKN035 OVC055 05/03 A3028 RMK AO2 T00500028
KAKO 120053Z AUTO 12009KT 10SM BKN009 OVC027 05/03 A3028 RMK AO2 CIG 006V012 SLP267 T00500028
KAKO 120030Z AUTO 13009KT 10SM FEW008 SCT020 OVC025 05/03 A3028 RMK AO2 T00500028
KAKO 120001Z AUTO 12010KT 10SM SCT008 BKN013 OVC036 05/03 A3028 RMK AO2 T00500028
KAKO 112353Z AUTO 12009KT 10SM BKN008 BKN023 OVC040 05/03 A3028 RMK AO2 CIG 007V013 SLP267 60000 T00500028 10067 20039 53011
KAKO 112343Z AUTO 11008KT 10SM FEW008 BKN034 OVC050 05/03 A3028 RMK AO2 T00500028
KAKO 112305Z AUTO 12010KT 5SM BR FEW009 BKN018 OVC023 04/02 A3027 RMK AO2 T00440022
KAKO 112253Z AUTO 12012KT 10SM OVC018 04/02 A3027 RMK AO2 RAB23E34 SLP261 P0000 T00440022
KAKO 112153Z AUTO 13010KT 10SM FEW019 BKN028 OVC038 06/02 A3025 RMK AO2 SLP249 T00560017